sensor_id;sensor_type;location;lat;lon;timestamp;P1;P2;P0
51320;PMS5003;38732;49.556;6.286;2023-04-06T00:02:12;26.25;26.25;14.25
51320;PMS5003;38732;49.556;6.286;2023-04-06T00:04:44;23.50;21.00;13.00
51320;PMS5003;38732;49.556;6.286;2023-04-06T00:07:12;9.00;9.00;4.00
51320;PMS5003;38732;49.556;6.286;2023-04-06T00:09:40;3.75;3.75;1.00
51320;PMS5003;38732;49.556;6.286;2023-04-06T00:12:08;23.00;19.75;12.50
51320;PMS5003;38732;49.556;6.286;2023-04-06T00:14:37;10.00;8.50;4.00
51320;PMS5003;38732;49.556;6.286;2023-04-06T00:17:05;13.25;13.25;6.50
51320;PMS5003;38732;49.556;6.286;2023-04-06T00:19:33;13.25;9.50;7.00
51320;PMS5003;38732;49.556;6.286;2023-04-06T00:22:01;11.50;9.75;5.50
51320;PMS5003;38732;49.556;6.286;2023-04-06T00:24:29;11.50;9.50;5.00
51320;PMS5003;38732;49.556;6.286;2023-04-06T00:26:58;8.50;6.25;3.00
51320;PMS5003;38732;49.556;6.286;2023-04-06T00:29:26;10.50;9.00;6.00
51320;PMS5003;38732;49.556;6.286;2023-04-06T00:31:54;27.25;23.00;14.00
51320;PMS5003;38732;49.556;6.286;2023-04-06T00:34:22;25.75;24.00;13.00
51320;PMS5003;38732;49.556;6.286;2023-04-06T00:36:51;11.75;10.00;4.00
51320;PMS5003;38732;49.556;6.286;2023-04-06T00:39:19;11.00;6.25;3.00
51320;PMS5003;38732;49.556;6.286;2023-04-06T00:41:49;9.50;8.00;3.75
51320;PMS5003;38732;49.556;6.286;2023-04-06T00:44:19;7.60;6.40;2.60
51320;PMS5003;38732;49.556;6.286;2023-04-06T00:46:48;11.00;7.00;3.75
51320;PMS5003;38732;49.556;6.286;2023-04-06T00:49:16;10.00;6.50;3.00
51320;PMS5003;38732;49.556;6.286;2023-04-06T00:51:44;15.00;10.00;6.00
51320;PMS5003;38732;49.556;6.286;2023-04-06T00:54:12;10.00;10.00;3.25
51320;PMS5003;38732;49.556;6.286;2023-04-06T00:56:41;8.00;6.50;3.00
51320;PMS5003;38732;49.556;6.286;2023-04-06T00:59:10;15.40;12.80;6.40
51320;PMS5003;38732;49.556;6.286;2023-04-06T01:01:39;10.40;7.60;3.80
51320;PMS5003;38732;49.556;6.286;2023-04-06T01:04:07;30.67;27.00;12.33
51320;PMS5003;38732;49.556;6.286;2023-04-06T01:06:36;7.00;6.25;3.50
51320;PMS5003;38732;49.556;6.286;2023-04-06T01:09:04;12.75;8.75;3.75
51320;PMS5003;38732;49.556;6.286;2023-04-06T01:11:32;16.00;12.00;6.75
51320;PMS5003;38732;49.556;6.286;2023-04-06T01:14:00;28.75;22.75;12.75
51320;PMS5003;38732;49.556;6.286;2023-04-06T01:16:28;7.50;4.50;3.00
51320;PMS5003;38732;49.556;6.286;2023-04-06T01:18:57;7.00;7.00;4.00
51320;PMS5003;38732;49.556;6.286;2023-04-06T01:21:25;8.00;8.00;4.50
51320;PMS5003;38732;49.556;6.286;2023-04-06T01:23:53;12.00;9.00;5.50
51320;PMS5003;38732;49.556;6.286;2023-04-06T01:26:21;24.00;17.00;9.75
51320;PMS5003;38732;49.556;6.286;2023-04-06T01:28:50;11.25;7.00;5.50
51320;PMS5003;38732;49.556;6.286;2023-04-06T01:31:18;10.00;4.25;1.50
51320;PMS5003;38732;49.556;6.286;2023-04-06T01:33:46;10.25;8.50;4.75
51320;PMS5003;38732;49.556;6.286;2023-04-06T01:36:14;28.67;27.00;15.33
51320;PMS5003;38732;49.556;6.286;2023-04-06T01:38:43;28.33;23.33;15.00
51320;PMS5003;38732;49.556;6.286;2023-04-06T01:41:11;9.50;8.50;3.25
51320;PMS5003;38732;49.556;6.286;2023-04-06T01:43:39;8.50;5.00;4.00
51320;PMS5003;38732;49.556;6.286;2023-04-06T01:46:08;24.75;20.50;12.00
51320;PMS5003;38732;49.556;6.286;2023-04-06T01:48:36;8.50;7.00;4.00
51320;PMS5003;38732;49.556;6.286;2023-04-06T01:51:04;9.25;8.50;6.00
51320;PMS5003;38732;49.556;6.286;2023-04-06T01:53:32;24.67;19.00;12.00
51320;PMS5003;38732;49.556;6.286;2023-04-06T01:56:00;5.25;3.50;1.50
51320;PMS5003;38732;49.556;6.286;2023-04-06T01:58:29;6.75;4.00;1.50
51320;PMS5003;38732;49.556;6.286;2023-04-06T02:00:57;18.33;15.33;9.67
51320;PMS5003;38732;49.556;6.286;2023-04-06T02:03:25;8.00;6.50;3.50
51320;PMS5003;38732;49.556;6.286;2023-04-06T02:05:53;12.50;8.00;3.50
51320;PMS5003;38732;49.556;6.286;2023-04-06T02:08:22;10.00;6.25;0.50
51320;PMS5003;38732;49.556;6.286;2023-04-06T02:10:50;13.00;11.50;4.00
51320;PMS5003;38732;49.556;6.286;2023-04-06T02:13:18;9.00;9.00;4.00
51320;PMS5003;38732;49.556;6.286;2023-04-06T02:15:46;9.50;8.50;6.00
51320;PMS5003;38732;49.556;6.286;2023-04-06T02:18:14;9.25;8.50;4.00
51320;PMS5003;38732;49.556;6.286;2023-04-06T02:20:43;7.25;6.50;4.00
51320;PMS5003;38732;49.556;6.286;2023-04-06T02:23:11;8.25;5.00;3.50
51320;PMS5003;38732;49.556;6.286;2023-04-06T02:25:39;9.75;9.75;5.50
51320;PMS5003;38732;49.556;6.286;2023-04-06T02:28:07;12.00;7.50;4.00
51320;PMS5003;38732;49.556;6.286;2023-04-06T02:30:36;7.75;7.00;4.00
51320;PMS5003;38732;49.556;6.286;2023-04-06T02:33:04;12.50;9.00;4.50
51320;PMS5003;38732;49.556;6.286;2023-04-06T02:35:32;5.50;4.00;3.00
51320;PMS5003;38732;49.556;6.286;2023-04-06T02:38:00;13.25;11.75;6.25
51320;PMS5003;38732;49.556;6.286;2023-04-06T02:40:28;6.25;5.50;2.50
51320;PMS5003;38732;49.556;6.286;2023-04-06T02:42:57;17.00;12.50;6.00
51320;PMS5003;38732;49.556;6.286;2023-04-06T02:45:25;25.00;22.00;15.00
51320;PMS5003;38732;49.556;6.286;2023-04-06T02:47:53;7.75;7.00;5.50
51320;PMS5003;38732;49.556;6.286;2023-04-06T02:50:21;7.00;7.00;4.00
51320;PMS5003;38732;49.556;6.286;2023-04-06T02:52:49;6.33;6.00;1.67
51320;PMS5003;38732;49.556;6.286;2023-04-06T02:55:18;8.75;3.75;1.00
51320;PMS5003;38732;49.556;6.286;2023-04-06T02:57:46;11.50;7.00;4.00
51320;PMS5003;38732;49.556;6.286;2023-04-06T03:00:14;10.00;7.50;5.00
51320;PMS5003;38732;49.556;6.286;2023-04-06T03:02:42;15.50;11.00;4.00
51320;PMS5003;38732;49.556;6.286;2023-04-06T03:05:11;10.25;8.75;4.50
51320;PMS5003;38732;49.556;6.286;2023-04-06T03:07:39;7.00;7.00;4.00
51320;PMS5003;38732;49.556;6.286;2023-04-06T03:10:07;6.75;6.75;3.00
51320;PMS5003;38732;49.556;6.286;2023-04-06T03:12:36;7.00;7.00;4.00
51320;PMS5003;38732;49.556;6.286;2023-04-06T03:15:04;6.50;6.00;3.00
51320;PMS5003;38732;49.556;6.286;2023-04-06T03:17:32;10.50;7.00;4.00
51320;PMS5003;38732;49.556;6.286;2023-04-06T03:20:01;7.75;7.00;3.50
51320;PMS5003;38732;49.556;6.286;2023-04-06T03:22:29;8.25;5.00;3.00
51320;PMS5003;38732;49.556;6.286;2023-04-06T03:24:57;5.50;4.00;3.00
51320;PMS5003;38732;49.556;6.286;2023-04-06T03:27:26;11.25;8.50;6.25
51320;PMS5003;38732;49.556;6.286;2023-04-06T03:29:54;5.50;5.50;3.50
51320;PMS5003;38732;49.556;6.286;2023-04-06T03:32:22;9.75;6.00;2.00
51320;PMS5003;38732;49.556;6.286;2023-04-06T03:34:50;6.00;6.00;3.75
51320;PMS5003;38732;49.556;6.286;2023-04-06T03:37:18;10.00;6.25;4.00
51320;PMS5003;38732;49.556;6.286;2023-04-06T03:39:47;9.00;7.50;4.00
51320;PMS5003;38732;49.556;6.286;2023-04-06T03:42:15;11.50;9.50;5.50
51320;PMS5003;38732;49.556;6.286;2023-04-06T03:44:43;11.33;7.00;4.00
51320;PMS5003;38732;49.556;6.286;2023-04-06T03:47:11;10.75;6.75;2.00
51320;PMS5003;38732;49.556;6.286;2023-04-06T03:49:39;8.00;7.50;5.00
51320;PMS5003;38732;49.556;6.286;2023-04-06T03:52:08;10.33;9.33;6.00
51320;PMS5003;38732;49.556;6.286;2023-04-06T03:54:36;10.75;7.00;3.75
51320;PMS5003;38732;49.556;6.286;2023-04-06T03:57:04;14.33;9.67;5.33
51320;PMS5003;38732;49.556;6.286;2023-04-06T03:59:33;13.50;9.00;4.00
51320;PMS5003;38732;49.556;6.286;2023-04-06T04:02:01;8.00;7.50;5.00
51320;PMS5003;38732;49.556;6.286;2023-04-06T04:04:29;14.33;13.00;6.67
51320;PMS5003;38732;49.556;6.286;2023-04-06T04:06:57;6.33;6.33;4.00
51320;PMS5003;38732;49.556;6.286;2023-04-06T04:09:26;9.50;9.50;6.00
51320;PMS5003;38732;49.556;6.286;2023-04-06T04:11:54;9.00;9.00;4.00
51320;PMS5003;38732;49.556;6.286;2023-04-06T04:14:22;5.00;3.75;1.00
51320;PMS5003;38732;49.556;6.286;2023-04-06T04:16:50;7.00;7.00;4.67
51320;PMS5003;38732;49.556;6.286;2023-04-06T04:19:18;11.00;10.00;4.00
51320;PMS5003;38732;49.556;6.286;2023-04-06T04:21:47;9.25;4.00;3.00
51320;PMS5003;38732;49.556;6.286;2023-04-06T04:24:15;9.00;6.00;3.00
51320;PMS5003;38732;49.556;6.286;2023-04-06T04:26:43;15.75;10.50;6.00
51320;PMS5003;38732;49.556;6.286;2023-04-06T04:29:11;11.00;9.50;5.00
51320;PMS5003;38732;49.556;6.286;2023-04-06T04:31:39;12.67;11.00;5.33
51320;PMS5003;38732;49.556;6.286;2023-04-06T04:34:08;6.00;4.00;1.00
51320;PMS5003;38732;49.556;6.286;2023-04-06T04:36:36;8.50;6.50;3.50
51320;PMS5003;38732;49.556;6.286;2023-04-06T04:39:04;9.50;7.00;5.50
51320;PMS5003;38732;49.556;6.286;2023-04-06T04:41:32;10.25;9.50;3.50
51320;PMS5003;38732;49.556;6.286;2023-04-06T04:44:00;11.75;6.25;3.00
51320;PMS5003;38732;49.556;6.286;2023-04-06T04:46:29;11.50;9.00;4.00
51320;PMS5003;38732;49.556;6.286;2023-04-06T04:48:57;7.00;6.00;5.00
51320;PMS5003;38732;49.556;6.286;2023-04-06T04:51:25;11.00;7.25;4.50
51320;PMS5003;38732;49.556;6.286;2023-04-06T04:53:53;8.50;7.00;3.00
51320;PMS5003;38732;49.556;6.286;2023-04-06T04:56:21;13.50;8.50;5.50
51320;PMS5003;38732;49.556;6.286;2023-04-06T04:58:50;13.00;11.00;7.50
51320;PMS5003;38732;49.556;6.286;2023-04-06T05:01:18;9.25;7.75;3.50
51320;PMS5003;38732;49.556;6.286;2023-04-06T05:03:46;2.50;2.50;0.00
51320;PMS5003;38732;49.556;6.286;2023-04-06T05:06:14;13.00;7.00;4.00
51320;PMS5003;38732;49.556;6.286;2023-04-06T05:08:42;8.75;8.00;4.00
51320;PMS5003;38732;49.556;6.286;2023-04-06T05:11:11;8.50;8.50;3.00
51320;PMS5003;38732;49.556;6.286;2023-04-06T05:13:39;13.25;8.00;5.50
51320;PMS5003;38732;49.556;6.286;2023-04-06T05:16:07;7.75;6.00;1.50
51320;PMS5003;38732;49.556;6.286;2023-04-06T05:18:35;13.00;13.00;7.00
51320;PMS5003;38732;49.556;6.286;2023-04-06T05:21:04;9.75;9.00;3.75
51320;PMS5003;38732;49.556;6.286;2023-04-06T05:23:32;13.00;8.50;5.50
51320;PMS5003;38732;49.556;6.286;2023-04-06T05:26:00;9.25;7.50;3.00
51320;PMS5003;38732;49.556;6.286;2023-04-06T05:28:29;8.50;6.25;3.50
51320;PMS5003;38732;49.556;6.286;2023-04-06T05:30:57;14.75;13.25;6.75
51320;PMS5003;38732;49.556;6.286;2023-04-06T05:33:25;13.50;9.75;5.25
51320;PMS5003;38732;49.556;6.286;2023-04-06T05:35:54;28.67;25.00;15.33
51320;PMS5003;38732;49.556;6.286;2023-04-06T05:38:22;11.50;10.00;7.00
51320;PMS5003;38732;49.556;6.286;2023-04-06T05:40:51;14.60;11.20;6.80
51320;PMS5003;38732;49.556;6.286;2023-04-06T05:43:20;15.75;9.25;6.00
51320;PMS5003;38732;49.556;6.286;2023-04-06T05:45:48;19.00;10.50;7.00
51320;PMS5003;38732;49.556;6.286;2023-04-06T05:48:16;13.50;9.25;6.00
51320;PMS5003;38732;49.556;6.286;2023-04-06T05:50:47;14.00;11.50;5.00
51320;PMS5003;38732;49.556;6.286;2023-04-06T05:53:17;10.40;8.60;6.00
51320;PMS5003;38732;49.556;6.286;2023-04-06T05:55:45;14.00;11.50;6.00
51320;PMS5003;38732;49.556;6.286;2023-04-06T05:58:13;14.50;9.25;6.25
51320;PMS5003;38732;49.556;6.286;2023-04-06T06:00:41;10.25;9.50;5.00
51320;PMS5003;38732;49.556;6.286;2023-04-06T06:03:09;10.00;6.25;0.75
51320;PMS5003;38732;49.556;6.286;2023-04-06T06:05:38;9.00;9.00;6.00
51320;PMS5003;38732;49.556;6.286;2023-04-06T06:08:06;12.25;10.00;6.25
51320;PMS5003;38732;49.556;6.286;2023-04-06T06:10:34;12.00;11.50;6.75
51320;PMS5003;38732;49.556;6.286;2023-04-06T06:13:02;12.00;12.00;6.75
51320;PMS5003;38732;49.556;6.286;2023-04-06T06:15:30;13.25;10.50;5.50
51320;PMS5003;38732;49.556;6.286;2023-04-06T06:17:59;36.67;30.00;16.67
51320;PMS5003;38732;49.556;6.286;2023-04-06T06:20:27;21.25;17.25;8.00
51320;PMS5003;38732;49.556;6.286;2023-04-06T06:22:55;7.00;7.00;6.00
51320;PMS5003;38732;49.556;6.286;2023-04-06T06:25:23;8.00;8.00;3.00
51320;PMS5003;38732;49.556;6.286;2023-04-06T06:27:52;16.00;13.00;7.00
51320;PMS5003;38732;49.556;6.286;2023-04-06T06:30:20;5.25;5.25;3.75
51320;PMS5003;38732;49.556;6.286;2023-04-06T06:32:48;12.75;11.00;6.00
51320;PMS5003;38732;49.556;6.286;2023-04-06T06:35:17;9.60;9.40;1.00
51320;PMS5003;38732;49.556;6.286;2023-04-06T06:37:45;18.50;13.50;9.00
51320;PMS5003;38732;49.556;6.286;2023-04-06T06:40:14;18.25;14.00;9.00
51320;PMS5003;38732;49.556;6.286;2023-04-06T06:42:42;23.25;14.50;7.00
51320;PMS5003;38732;49.556;6.286;2023-04-06T06:45:10;28.25;26.00;18.25
51320;PMS5003;38732;49.556;6.286;2023-04-06T06:47:38;18.75;14.50;9.00
51320;PMS5003;38732;49.556;6.286;2023-04-06T06:50:07;23.00;19.25;10.00
51320;PMS5003;38732;49.556;6.286;2023-04-06T06:52:35;19.00;15.25;8.00
51320;PMS5003;38732;49.556;6.286;2023-04-06T06:55:03;25.50;19.50;11.50
51320;PMS5003;38732;49.556;6.286;2023-04-06T06:57:32;26.50;26.50;16.00
51320;PMS5003;38732;49.556;6.286;2023-04-06T07:00:00;47.25;36.00;21.75
51320;PMS5003;38732;49.556;6.286;2023-04-06T07:02:28;32.75;27.75;19.00
51320;PMS5003;38732;49.556;6.286;2023-04-06T07:04:56;34.00;32.75;20.50
51320;PMS5003;38732;49.556;6.286;2023-04-06T07:07:24;36.00;30.25;18.50
51320;PMS5003;38732;49.556;6.286;2023-04-06T07:09:53;34.25;32.25;21.25
51320;PMS5003;38732;49.556;6.286;2023-04-06T07:12:21;44.25;34.50;22.75
51320;PMS5003;38732;49.556;6.286;2023-04-06T07:14:49;40.25;35.50;21.25
51320;PMS5003;38732;49.556;6.286;2023-04-06T07:17:17;33.00;30.50;19.50
51320;PMS5003;38732;49.556;6.286;2023-04-06T07:19:46;43.25;35.50;20.00
51320;PMS5003;38732;49.556;6.286;2023-04-06T07:22:14;43.75;37.50;21.25
51320;PMS5003;38732;49.556;6.286;2023-04-06T07:24:42;39.75;34.00;20.50
51320;PMS5003;38732;49.556;6.286;2023-04-06T07:27:11;31.75;31.75;20.25
51320;PMS5003;38732;49.556;6.286;2023-04-06T07:29:39;32.50;30.50;18.50
51320;PMS5003;38732;49.556;6.286;2023-04-06T07:32:07;27.50;23.50;19.00
51320;PMS5003;38732;49.556;6.286;2023-04-06T07:34:36;38.00;28.75;19.00
51320;PMS5003;38732;49.556;6.286;2023-04-06T07:37:04;31.75;24.25;14.50
51320;PMS5003;38732;49.556;6.286;2023-04-06T07:39:32;38.00;32.00;19.25
51320;PMS5003;38732;49.556;6.286;2023-04-06T07:42:00;30.00;27.25;16.00
51320;PMS5003;38732;49.556;6.286;2023-04-06T07:44:28;35.25;30.25;21.00
51320;PMS5003;38732;49.556;6.286;2023-04-06T07:46:57;32.50;29.25;19.50
51320;PMS5003;38732;49.556;6.286;2023-04-06T07:49:25;31.50;28.75;17.00
51320;PMS5003;38732;49.556;6.286;2023-04-06T07:51:53;35.75;32.25;18.50
51320;PMS5003;38732;49.556;6.286;2023-04-06T07:54:21;33.75;30.50;14.25
51320;PMS5003;38732;49.556;6.286;2023-04-06T07:56:50;33.25;28.75;17.00
51320;PMS5003;38732;49.556;6.286;2023-04-06T07:59:18;36.75;27.50;17.00
51320;PMS5003;38732;49.556;6.286;2023-04-06T08:01:46;26.50;24.00;13.75
51320;PMS5003;38732;49.556;6.286;2023-04-06T08:04:14;31.75;28.50;18.25
51320;PMS5003;38732;49.556;6.286;2023-04-06T08:06:43;29.25;26.75;16.75
51320;PMS5003;38732;49.556;6.286;2023-04-06T08:09:11;32.25;29.50;17.25
51320;PMS5003;38732;49.556;6.286;2023-04-06T08:11:39;33.00;27.75;18.00
51320;PMS5003;38732;49.556;6.286;2023-04-06T08:14:07;29.75;28.75;17.00
51320;PMS5003;38732;49.556;6.286;2023-04-06T08:16:36;31.00;28.50;19.00
51320;PMS5003;38732;49.556;6.286;2023-04-06T08:19:04;38.25;31.25;19.50
51320;PMS5003;38732;49.556;6.286;2023-04-06T08:21:32;33.75;27.00;14.00
51320;PMS5003;38732;49.556;6.286;2023-04-06T08:24:01;32.75;27.50;17.00
51320;PMS5003;38732;49.556;6.286;2023-04-06T08:26:29;29.50;29.25;21.50
51320;PMS5003;38732;49.556;6.286;2023-04-06T08:28:57;31.75;26.75;16.50
51320;PMS5003;38732;49.556;6.286;2023-04-06T08:31:26;32.00;27.50;16.25
51320;PMS5003;38732;49.556;6.286;2023-04-06T08:33:54;32.25;27.50;16.50
51320;PMS5003;38732;49.556;6.286;2023-04-06T08:36:22;30.00;30.00;19.00
51320;PMS5003;38732;49.556;6.286;2023-04-06T08:38:50;30.75;26.50;14.25
51320;PMS5003;38732;49.556;6.286;2023-04-06T08:41:19;30.50;27.25;19.25
51320;PMS5003;38732;49.556;6.286;2023-04-06T08:43:48;22.50;17.75;15.25
51320;PMS5003;38732;49.556;6.286;2023-04-06T08:46:27;32.00;28.20;16.00
51320;PMS5003;38732;49.556;6.286;2023-04-06T08:48:58;35.60;31.40;19.80
51320;PMS5003;38732;49.556;6.286;2023-04-06T08:51:31;31.00;29.00;18.00
51320;PMS5003;38732;49.556;6.286;2023-04-06T08:53:59;25.00;24.00;17.25
51320;PMS5003;38732;49.556;6.286;2023-04-06T08:56:28;34.25;32.50;20.00
51320;PMS5003;38732;49.556;6.286;2023-04-06T08:58:56;42.00;35.40;20.20
51320;PMS5003;38732;49.556;6.286;2023-04-06T09:01:26;32.00;30.50;20.00
51320;PMS5003;38732;49.556;6.286;2023-04-06T09:03:56;36.60;29.60;19.80
51320;PMS5003;38732;49.556;6.286;2023-04-06T09:06:26;32.80;29.00;19.00
51320;PMS5003;38732;49.556;6.286;2023-04-06T09:08:54;19.25;14.50;7.75
51320;PMS5003;38732;49.556;6.286;2023-04-06T09:11:23;30.50;25.50;16.00
51320;PMS5003;38732;49.556;6.286;2023-04-06T09:13:52;35.25;32.25;19.25
51320;PMS5003;38732;49.556;6.286;2023-04-06T09:16:22;33.40;30.40;20.00
51320;PMS5003;38732;49.556;6.286;2023-04-06T09:18:51;25.00;23.80;16.00
51320;PMS5003;38732;49.556;6.286;2023-04-06T09:21:19;38.50;33.50;20.00
51320;PMS5003;38732;49.556;6.286;2023-04-06T09:23:57;35.75;30.00;18.00
51320;PMS5003;38732;49.556;6.286;2023-04-06T09:26:26;33.80;28.20;18.60
51320;PMS5003;38732;49.556;6.286;2023-04-06T09:28:55;37.75;31.50;19.25
51320;PMS5003;38732;49.556;6.286;2023-04-06T09:31:27;30.80;28.00;17.40
51320;PMS5003;38732;49.556;6.286;2023-04-06T09:33:57;37.40;29.80;20.00
51320;PMS5003;38732;49.556;6.286;2023-04-06T09:36:32;27.25;27.25;16.25
51320;PMS5003;38732;49.556;6.286;2023-04-06T09:39:02;30.40;27.40;17.00
51320;PMS5003;38732;49.556;6.286;2023-04-06T09:41:31;30.40;28.60;17.20
51320;PMS5003;38732;49.556;6.286;2023-04-06T09:44:04;32.40;28.00;16.20
51320;PMS5003;38732;49.556;6.286;2023-04-06T09:46:41;27.00;27.00;16.20
51320;PMS5003;38732;49.556;6.286;2023-04-06T09:49:11;33.20;30.80;18.60
51320;PMS5003;38732;49.556;6.286;2023-04-06T09:51:45;31.80;31.80;17.80
51320;PMS5003;38732;49.556;6.286;2023-04-06T09:54:23;29.60;26.20;17.80
51320;PMS5003;38732;49.556;6.286;2023-04-06T10:05:55;30.40;28.40;16.60
51320;PMS5003;38732;49.556;6.286;2023-04-06T10:08:26;32.60;27.20;15.40
51320;PMS5003;38732;49.556;6.286;2023-04-06T10:10:55;27.40;24.80;15.60
51320;PMS5003;38732;49.556;6.286;2023-04-06T10:13:24;28.75;27.75;17.00
51320;PMS5003;38732;49.556;6.286;2023-04-06T10:15:52;31.00;27.75;19.00
51320;PMS5003;38732;49.556;6.286;2023-04-06T10:18:22;25.40;25.00;14.60
51320;PMS5003;38732;49.556;6.286;2023-04-06T10:21:06;29.25;24.75;17.50
51320;PMS5003;38732;49.556;6.286;2023-04-06T10:23:49;34.20;29.80;18.00
51320;PMS5003;38732;49.556;6.286;2023-04-06T10:26:20;30.00;28.80;17.40
51320;PMS5003;38732;49.556;6.286;2023-04-06T10:28:49;29.80;26.00;16.80
51320;PMS5003;38732;49.556;6.286;2023-04-06T10:31:27;24.20;24.20;12.80
51320;PMS5003;38732;49.556;6.286;2023-04-06T10:33:59;28.40;25.80;15.20
51320;PMS5003;38732;49.556;6.286;2023-04-06T10:36:32;26.20;24.20;15.40
51320;PMS5003;38732;49.556;6.286;2023-04-06T10:39:05;30.00;28.20;17.40
51320;PMS5003;38732;49.556;6.286;2023-04-06T10:41:34;27.00;24.20;16.40
51320;PMS5003;38732;49.556;6.286;2023-04-06T10:44:04;29.60;26.60;14.00
51320;PMS5003;38732;49.556;6.286;2023-04-06T10:46:32;27.75;27.75;16.25
51320;PMS5003;38732;49.556;6.286;2023-04-06T10:49:11;27.60;23.60;13.80
51320;PMS5003;38732;49.556;6.286;2023-04-06T10:51:40;29.60;24.60;16.00
51320;PMS5003;38732;49.556;6.286;2023-04-06T10:54:08;28.00;22.50;13.50
51320;PMS5003;38732;49.556;6.286;2023-04-06T10:56:38;25.40;23.00;13.80
51320;PMS5003;38732;49.556;6.286;2023-04-06T10:59:07;29.00;24.25;16.00
51320;PMS5003;38732;49.556;6.286;2023-04-06T11:01:35;24.00;22.00;17.00
51320;PMS5003;38732;49.556;6.286;2023-04-06T11:04:03;26.75;24.25;15.75
51320;PMS5003;38732;49.556;6.286;2023-04-06T11:06:32;18.00;14.00;9.50
51320;PMS5003;38732;49.556;6.286;2023-04-06T11:09:00;31.50;26.50;15.50
51320;PMS5003;38732;49.556;6.286;2023-04-06T11:11:28;19.50;14.50;8.75
51320;PMS5003;38732;49.556;6.286;2023-04-06T11:13:57;23.75;22.75;15.25
51320;PMS5003;38732;49.556;6.286;2023-04-06T11:16:27;26.00;20.60;14.00
51320;PMS5003;38732;49.556;6.286;2023-04-06T11:18:57;25.60;19.40;12.20
51320;PMS5003;38732;49.556;6.286;2023-04-06T11:24:13;24.80;22.60;14.40
51320;PMS5003;38732;49.556;6.286;2023-04-06T11:26:53;21.80;19.40;12.60
51320;PMS5003;38732;49.556;6.286;2023-04-06T11:29:26;26.40;23.60;15.20
51320;PMS5003;38732;49.556;6.286;2023-04-06T11:31:59;27.40;23.60;16.00
51320;PMS5003;38732;49.556;6.286;2023-04-06T11:34:29;26.80;21.60;13.60
51320;PMS5003;38732;49.556;6.286;2023-04-06T11:36:59;25.80;24.80;14.60
51320;PMS5003;38732;49.556;6.286;2023-04-06T11:39:29;25.00;23.00;13.20
51320;PMS5003;38732;49.556;6.286;2023-04-06T11:41:58;17.75;16.75;11.50
51320;PMS5003;38732;49.556;6.286;2023-04-06T11:44:42;23.40;19.60;12.00
51320;PMS5003;38732;49.556;6.286;2023-04-06T11:47:12;23.80;22.60;13.00
51320;PMS5003;38732;49.556;6.286;2023-04-06T11:49:41;19.20;19.20;12.20
51320;PMS5003;38732;49.556;6.286;2023-04-06T11:52:17;19.20;18.40;11.20
51320;PMS5003;38732;49.556;6.286;2023-04-06T11:54:53;18.60;17.20;9.40
51320;PMS5003;38732;49.556;6.286;2023-04-06T11:57:22;17.20;14.40;9.80
51320;PMS5003;38732;49.556;6.286;2023-04-06T11:59:51;21.00;17.00;10.00
51320;PMS5003;38732;49.556;6.286;2023-04-06T12:02:19;17.80;14.80;10.00
51320;PMS5003;38732;49.556;6.286;2023-04-06T12:04:48;16.00;14.00;11.00
51320;PMS5003;38732;49.556;6.286;2023-04-06T12:07:16;18.00;16.75;9.00
51320;PMS5003;38732;49.556;6.286;2023-04-06T12:09:44;12.50;12.50;7.00
51320;PMS5003;38732;49.556;6.286;2023-04-06T12:12:12;18.00;15.50;9.50
51320;PMS5003;38732;49.556;6.286;2023-04-06T12:14:41;16.50;14.00;8.75
51320;PMS5003;38732;49.556;6.286;2023-04-06T12:17:09;12.25;12.00;8.00
51320;PMS5003;38732;49.556;6.286;2023-04-06T12:19:37;17.25;14.25;8.00
51320;PMS5003;38732;49.556;6.286;2023-04-06T12:22:05;13.50;11.00;8.00
51320;PMS5003;38732;49.556;6.286;2023-04-06T12:24:33;15.75;12.00;7.00
51320;PMS5003;38732;49.556;6.286;2023-04-06T12:27:02;11.25;11.25;8.00
51320;PMS5003;38732;49.556;6.286;2023-04-06T12:29:30;10.50;10.50;7.00
51320;PMS5003;38732;49.556;6.286;2023-04-06T12:31:59;13.50;9.75;6.00
51320;PMS5003;38732;49.556;6.286;2023-04-06T12:34:27;7.80;7.80;4.40
51320;PMS5003;38732;49.556;6.286;2023-04-06T12:36:55;11.50;9.00;7.00
51320;PMS5003;38732;49.556;6.286;2023-04-06T12:39:24;11.50;9.00;5.50
51320;PMS5003;38732;49.556;6.286;2023-04-06T12:41:52;7.25;5.50;3.00
51320;PMS5003;38732;49.556;6.286;2023-04-06T12:44:20;9.50;8.25;6.50
51320;PMS5003;38732;49.556;6.286;2023-04-06T12:46:49;12.00;10.00;5.00
51320;PMS5003;38732;49.556;6.286;2023-04-06T12:49:17;7.75;6.75;4.00
51320;PMS5003;38732;49.556;6.286;2023-04-06T12:51:45;6.00;6.00;3.00
51320;PMS5003;38732;49.556;6.286;2023-04-06T12:54:13;9.00;9.00;6.00
51320;PMS5003;38732;49.556;6.286;2023-04-06T12:56:41;10.50;8.50;5.50
51320;PMS5003;38732;49.556;6.286;2023-04-06T12:59:10;13.75;10.50;6.25
51320;PMS5003;38732;49.556;6.286;2023-04-06T13:01:38;9.75;8.25;6.00
51320;PMS5003;38732;49.556;6.286;2023-04-06T13:04:06;10.75;9.00;6.00
51320;PMS5003;38732;49.556;6.286;2023-04-06T13:06:34;9.50;9.50;6.00
51320;PMS5003;38732;49.556;6.286;2023-04-06T13:09:02;8.75;6.75;4.50
51320;PMS5003;38732;49.556;6.286;2023-04-06T13:11:31;8.25;8.25;5.50
51320;PMS5003;38732;49.556;6.286;2023-04-06T13:13:59;7.75;7.75;4.50
51320;PMS5003;38732;49.556;6.286;2023-04-06T13:16:27;10.75;8.50;5.50
51320;PMS5003;38732;49.556;6.286;2023-04-06T13:18:55;9.50;8.50;6.00
51320;PMS5003;38732;49.556;6.286;2023-04-06T13:21:23;11.75;11.25;6.50
51320;PMS5003;38732;49.556;6.286;2023-04-06T13:23:52;9.75;8.25;6.50
51320;PMS5003;38732;49.556;6.286;2023-04-06T13:26:20;14.00;11.00;5.00
51320;PMS5003;38732;49.556;6.286;2023-04-06T13:28:48;11.50;9.00;6.00
51320;PMS5003;38732;49.556;6.286;2023-04-06T13:31:17;9.00;9.00;6.00
51320;PMS5003;38732;49.556;6.286;2023-04-06T13:33:45;12.00;9.25;6.50
51320;PMS5003;38732;49.556;6.286;2023-04-06T13:36:13;7.00;7.00;4.25
51320;PMS5003;38732;49.556;6.286;2023-04-06T13:38:41;11.50;10.25;4.25
51320;PMS5003;38732;49.556;6.286;2023-04-06T13:41:10;8.50;8.50;6.00
51320;PMS5003;38732;49.556;6.286;2023-04-06T13:43:38;9.50;8.00;6.50
51320;PMS5003;38732;49.556;6.286;2023-04-06T13:46:06;11.00;9.00;6.25
51320;PMS5003;38732;49.556;6.286;2023-04-06T13:48:34;7.75;7.75;6.00
51320;PMS5003;38732;49.556;6.286;2023-04-06T13:51:12;9.50;9.50;6.00
51320;PMS5003;38732;49.556;6.286;2023-04-06T13:53:41;13.60;9.40;6.00
51320;PMS5003;38732;49.556;6.286;2023-04-06T13:56:10;8.75;8.75;6.75
51320;PMS5003;38732;49.556;6.286;2023-04-06T13:58:38;10.75;9.50;6.25
51320;PMS5003;38732;49.556;6.286;2023-04-06T14:01:07;12.25;12.25;7.00
51320;PMS5003;38732;49.556;6.286;2023-04-06T14:03:35;12.20;12.20;6.80
51320;PMS5003;38732;49.556;6.286;2023-04-06T14:06:11;15.00;12.75;7.75
51320;PMS5003;38732;49.556;6.286;2023-04-06T14:08:40;11.40;11.00;6.20
51320;PMS5003;38732;49.556;6.286;2023-04-06T14:11:11;18.00;13.50;7.25
51320;PMS5003;38732;49.556;6.286;2023-04-06T14:13:41;16.00;14.40;6.80
51320;PMS5003;38732;49.556;6.286;2023-04-06T14:16:09;11.50;11.50;7.50
51320;PMS5003;38732;49.556;6.286;2023-04-06T14:18:37;10.50;10.50;6.25
51320;PMS5003;38732;49.556;6.286;2023-04-06T14:21:05;10.75;7.75;5.00
51320;PMS5003;38732;49.556;6.286;2023-04-06T14:23:33;14.25;12.00;6.25